sensor_id;sensor_type;location;lat;lon;timestamp;P1;durP1;ratioP1;P2;durP2;ratioP2
13959;SDS011;7052;51.050;3.716;2023-07-31T00:00:05;14.82;;;6.68;;
13959;SDS011;7052;51.050;3.716;2023-07-31T00:02:34;11.52;;;5.80;;
13959;SDS011;7052;51.050;3.716;2023-07-31T00:05:01;18.65;;;6.57;;
13959;SDS011;7052;51.050;3.716;2023-07-31T00:07:28;12.55;;;6.55;;
13959;SDS011;7052;51.050;3.716;2023-07-31T00:09:55;14.52;;;6.30;;
13959;SDS011;7052;51.050;3.716;2023-07-31T00:12:23;17.40;;;7.18;;
13959;SDS011;7052;51.050;3.716;2023-07-31T00:14:51;18.20;;;6.97;;
13959;SDS011;7052;51.050;3.716;2023-07-31T00:17:19;17.25;;;6.82;;
13959;SDS011;7052;51.050;3.716;2023-07-31T00:19:46;14.15;;;6.68;;
13959;SDS011;7052;51.050;3.716;2023-07-31T00:22:15;17.60;;;7.00;;
13959;SDS011;7052;51.050;3.716;2023-07-31T00:24:42;15.23;;;7.55;;
13959;SDS011;7052;51.050;3.716;2023-07-31T00:27:10;16.85;;;7.18;;
13959;SDS011;7052;51.050;3.716;2023-07-31T00:29:37;17.05;;;6.75;;
13959;SDS011;7052;51.050;3.716;2023-07-31T00:32:08;17.08;;;7.15;;
13959;SDS011;7052;51.050;3.716;2023-07-31T00:34:35;17.85;;;7.25;;
13959;SDS011;7052;51.050;3.716;2023-07-31T00:37:03;11.35;;;6.53;;
13959;SDS011;7052;51.050;3.716;2023-07-31T00:39:31;14.27;;;6.78;;
13959;SDS011;7052;51.050;3.716;2023-07-31T00:42:00;13.70;;;6.60;;
13959;SDS011;7052;51.050;3.716;2023-07-31T00:44:29;14.18;;;6.65;;
13959;SDS011;7052;51.050;3.716;2023-07-31T00:47:00;15.13;;;6.68;;
13959;SDS011;7052;51.050;3.716;2023-07-31T00:49:29;15.25;;;6.93;;
13959;SDS011;7052;51.050;3.716;2023-07-31T00:51:58;13.25;;;6.18;;
13959;SDS011;7052;51.050;3.716;2023-07-31T00:54:27;11.20;;;5.78;;
13959;SDS011;7052;51.050;3.716;2023-07-31T00:56:55;11.50;;;6.40;;
13959;SDS011;7052;51.050;3.716;2023-07-31T00:59:25;22.85;;;6.32;;
13959;SDS011;7052;51.050;3.716;2023-07-31T01:01:54;13.40;;;5.85;;
13959;SDS011;7052;51.050;3.716;2023-07-31T01:04:21;18.70;;;6.80;;
13959;SDS011;7052;51.050;3.716;2023-07-31T01:06:51;17.63;;;6.65;;
13959;SDS011;7052;51.050;3.716;2023-07-31T01:09:33;13.82;;;6.22;;
13959;SDS011;7052;51.050;3.716;2023-07-31T01:12:07;14.40;;;6.38;;
13959;SDS011;7052;51.050;3.716;2023-07-31T01:14:38;12.05;;;5.65;;
13959;SDS011;7052;51.050;3.716;2023-07-31T01:17:05;13.90;;;6.15;;
13959;SDS011;7052;51.050;3.716;2023-07-31T01:19:33;10.65;;;5.93;;
13959;SDS011;7052;51.050;3.716;2023-07-31T01:22:12;12.27;;;5.43;;
13959;SDS011;7052;51.050;3.716;2023-07-31T01:24:54;11.70;;;5.90;;
13959;SDS011;7052;51.050;3.716;2023-07-31T01:27:30;13.82;;;6.45;;
13959;SDS011;7052;51.050;3.716;2023-07-31T01:30:03;11.75;;;5.97;;
13959;SDS011;7052;51.050;3.716;2023-07-31T01:32:36;16.05;;;6.95;;
13959;SDS011;7052;51.050;3.716;2023-07-31T01:35:05;13.45;;;6.22;;
13959;SDS011;7052;51.050;3.716;2023-07-31T01:37:33;14.15;;;6.75;;
13959;SDS011;7052;51.050;3.716;2023-07-31T01:40:00;15.05;;;6.63;;
13959;SDS011;7052;51.050;3.716;2023-07-31T01:42:27;14.45;;;6.35;;
13959;SDS011;7052;51.050;3.716;2023-07-31T01:44:56;12.68;;;6.38;;
13959;SDS011;7052;51.050;3.716;2023-07-31T01:47:23;12.73;;;6.10;;
13959;SDS011;7052;51.050;3.716;2023-07-31T01:49:49;18.05;;;6.35;;
13959;SDS011;7052;51.050;3.716;2023-07-31T01:52:19;10.38;;;5.43;;
13959;SDS011;7052;51.050;3.716;2023-07-31T01:54:46;9.43;;;5.72;;
13959;SDS011;7052;51.050;3.716;2023-07-31T01:57:13;10.18;;;5.40;;
13959;SDS011;7052;51.050;3.716;2023-07-31T01:59:43;14.65;;;6.47;;
13959;SDS011;7052;51.050;3.716;2023-07-31T02:02:15;12.18;;;5.82;;
13959;SDS011;7052;51.050;3.716;2023-07-31T02:04:42;16.65;;;6.05;;
13959;SDS011;7052;51.050;3.716;2023-07-31T02:07:09;11.55;;;5.15;;
13959;SDS011;7052;51.050;3.716;2023-07-31T02:09:36;13.93;;;5.97;;
13959;SDS011;7052;51.050;3.716;2023-07-31T02:12:12;11.63;;;5.75;;
13959;SDS011;7052;51.050;3.716;2023-07-31T02:14:39;10.23;;;4.95;;
13959;SDS011;7052;51.050;3.716;2023-07-31T02:17:07;12.52;;;5.40;;
13959;SDS011;7052;51.050;3.716;2023-07-31T02:19:35;18.42;;;5.75;;
13959;SDS011;7052;51.050;3.716;2023-07-31T02:22:02;13.65;;;5.95;;
13959;SDS011;7052;51.050;3.716;2023-07-31T02:24:29;11.07;;;5.22;;
13959;SDS011;7052;51.050;3.716;2023-07-31T02:26:57;13.15;;;5.30;;
13959;SDS011;7052;51.050;3.716;2023-07-31T02:29:24;11.70;;;5.35;;
13959;SDS011;7052;51.050;3.716;2023-07-31T02:31:51;14.07;;;5.95;;
13959;SDS011;7052;51.050;3.716;2023-07-31T02:34:18;13.02;;;5.32;;
13959;SDS011;7052;51.050;3.716;2023-07-31T02:36:46;9.23;;;5.57;;
13959;SDS011;7052;51.050;3.716;2023-07-31T02:39:15;16.38;;;6.35;;
13959;SDS011;7052;51.050;3.716;2023-07-31T02:41:42;11.48;;;5.50;;
13959;SDS011;7052;51.050;3.716;2023-07-31T02:44:09;15.43;;;5.45;;
13959;SDS011;7052;51.050;3.716;2023-07-31T02:46:39;13.65;;;5.80;;
13959;SDS011;7052;51.050;3.716;2023-07-31T02:49:10;17.02;;;5.30;;
13959;SDS011;7052;51.050;3.716;2023-07-31T02:51:37;13.85;;;5.88;;
13959;SDS011;7052;51.050;3.716;2023-07-31T02:54:08;11.98;;;5.45;;
13959;SDS011;7052;51.050;3.716;2023-07-31T02:56:37;12.43;;;5.65;;
13959;SDS011;7052;51.050;3.716;2023-07-31T02:59:04;12.82;;;5.85;;
13959;SDS011;7052;51.050;3.716;2023-07-31T03:01:31;10.35;;;5.25;;
13959;SDS011;7052;51.050;3.716;2023-07-31T03:03:59;16.75;;;5.82;;
13959;SDS011;7052;51.050;3.716;2023-07-31T03:06:26;13.82;;;5.70;;
13959;SDS011;7052;51.050;3.716;2023-07-31T03:08:56;12.90;;;5.47;;
13959;SDS011;7052;51.050;3.716;2023-07-31T03:11:28;13.93;;;5.78;;
13959;SDS011;7052;51.050;3.716;2023-07-31T03:13:55;14.90;;;6.40;;
13959;SDS011;7052;51.050;3.716;2023-07-31T03:16:23;17.23;;;6.38;;
13959;SDS011;7052;51.050;3.716;2023-07-31T03:18:50;12.95;;;6.00;;
13959;SDS011;7052;51.050;3.716;2023-07-31T03:21:17;15.05;;;6.38;;
13959;SDS011;7052;51.050;3.716;2023-07-31T03:23:44;13.13;;;6.35;;
13959;SDS011;7052;51.050;3.716;2023-07-31T03:26:11;11.60;;;6.30;;
13959;SDS011;7052;51.050;3.716;2023-07-31T03:28:40;12.95;;;5.72;;
13959;SDS011;7052;51.050;3.716;2023-07-31T03:31:07;12.30;;;6.25;;
13959;SDS011;7052;51.050;3.716;2023-07-31T03:33:41;11.73;;;5.97;;
13959;SDS011;7052;51.050;3.716;2023-07-31T03:36:08;13.90;;;6.82;;
13959;SDS011;7052;51.050;3.716;2023-07-31T03:38:35;13.13;;;6.72;;
13959;SDS011;7052;51.050;3.716;2023-07-31T03:41:02;15.32;;;6.50;;
13959;SDS011;7052;51.050;3.716;2023-07-31T03:43:31;9.85;;;6.18;;
13959;SDS011;7052;51.050;3.716;2023-07-31T03:46:01;11.32;;;5.88;;
13959;SDS011;7052;51.050;3.716;2023-07-31T03:48:28;14.50;;;6.90;;
13959;SDS011;7052;51.050;3.716;2023-07-31T03:50:55;13.15;;;6.45;;
13959;SDS011;7052;51.050;3.716;2023-07-31T03:53:24;14.55;;;6.50;;
13959;SDS011;7052;51.050;3.716;2023-07-31T03:55:53;13.27;;;6.60;;
13959;SDS011;7052;51.050;3.716;2023-07-31T03:58:20;12.73;;;6.82;;
13959;SDS011;7052;51.050;3.716;2023-07-31T04:00:47;10.95;;;7.03;;
13959;SDS011;7052;51.050;3.716;2023-07-31T04:03:16;15.73;;;7.43;;
13959;SDS011;7052;51.050;3.716;2023-07-31T04:05:43;13.30;;;6.90;;
13959;SDS011;7052;51.050;3.716;2023-07-31T04:08:11;15.73;;;6.65;;
13959;SDS011;7052;51.050;3.716;2023-07-31T04:10:40;15.15;;;6.65;;
13959;SDS011;7052;51.050;3.716;2023-07-31T04:13:08;12.68;;;6.68;;
13959;SDS011;7052;51.050;3.716;2023-07-31T04:15:37;13.10;;;6.53;;
13959;SDS011;7052;51.050;3.716;2023-07-31T04:18:05;14.73;;;6.53;;
13959;SDS011;7052;51.050;3.716;2023-07-31T04:20:36;15.02;;;7.20;;
13959;SDS011;7052;51.050;3.716;2023-07-31T04:23:03;11.05;;;6.25;;
13959;SDS011;7052;51.050;3.716;2023-07-31T04:25:31;11.57;;;6.13;;
13959;SDS011;7052;51.050;3.716;2023-07-31T04:28:00;12.50;;;6.35;;
13959;SDS011;7052;51.050;3.716;2023-07-31T04:30:27;12.63;;;5.68;;
13959;SDS011;7052;51.050;3.716;2023-07-31T04:32:54;12.18;;;5.75;;
13959;SDS011;7052;51.050;3.716;2023-07-31T04:35:21;10.68;;;5.97;;
13959;SDS011;7052;51.050;3.716;2023-07-31T04:37:50;8.65;;;5.60;;
13959;SDS011;7052;51.050;3.716;2023-07-31T04:40:17;11.07;;;5.97;;
13959;SDS011;7052;51.050;3.716;2023-07-31T04:42:45;9.88;;;5.63;;
13959;SDS011;7052;51.050;3.716;2023-07-31T04:45:13;11.10;;;5.65;;
13959;SDS011;7052;51.050;3.716;2023-07-31T04:47:42;8.30;;;5.55;;
13959;SDS011;7052;51.050;3.716;2023-07-31T04:50:10;10.15;;;5.25;;
13959;SDS011;7052;51.050;3.716;2023-07-31T04:52:37;11.73;;;5.38;;
13959;SDS011;7052;51.050;3.716;2023-07-31T04:55:07;9.32;;;5.35;;
13959;SDS011;7052;51.050;3.716;2023-07-31T04:57:34;8.65;;;5.25;;
13959;SDS011;7052;51.050;3.716;2023-07-31T05:00:02;11.27;;;5.35;;
13959;SDS011;7052;51.050;3.716;2023-07-31T05:02:34;8.73;;;5.00;;
13959;SDS011;7052;51.050;3.716;2023-07-31T05:05:03;10.15;;;5.05;;
13959;SDS011;7052;51.050;3.716;2023-07-31T05:07:32;8.50;;;4.70;;
13959;SDS011;7052;51.050;3.716;2023-07-31T05:09:58;9.25;;;5.10;;
13959;SDS011;7052;51.050;3.716;2023-07-31T05:12:27;9.05;;;5.30;;
13959;SDS011;7052;51.050;3.716;2023-07-31T05:14:55;9.02;;;5.40;;
13959;SDS011;7052;51.050;3.716;2023-07-31T05:17:21;8.48;;;5.45;;
13959;SDS011;7052;51.050;3.716;2023-07-31T05:19:49;7.40;;;5.25;;
13959;SDS011;7052;51.050;3.716;2023-07-31T05:22:16;8.30;;;5.55;;
13959;SDS011;7052;51.050;3.716;2023-07-31T05:24:43;8.20;;;5.65;;
13959;SDS011;7052;51.050;3.716;2023-07-31T05:27:10;7.85;;;5.30;;
13959;SDS011;7052;51.050;3.716;2023-07-31T05:29:44;9.45;;;5.90;;
13959;SDS011;7052;51.050;3.716;2023-07-31T05:32:13;9.80;;;6.00;;
13959;SDS011;7052;51.050;3.716;2023-07-31T05:34:39;8.85;;;5.90;;
13959;SDS011;7052;51.050;3.716;2023-07-31T05:37:07;8.10;;;5.22;;
13959;SDS011;7052;51.050;3.716;2023-07-31T05:39:36;9.30;;;5.18;;
13959;SDS011;7052;51.050;3.716;2023-07-31T05:42:04;13.07;;;5.72;;
13959;SDS011;7052;51.050;3.716;2023-07-31T05:44:31;6.75;;;5.25;;
13959;SDS011;7052;51.050;3.716;2023-07-31T05:47:00;9.55;;;5.30;;
13959;SDS011;7052;51.050;3.716;2023-07-31T05:49:27;9.30;;;5.40;;
13959;SDS011;7052;51.050;3.716;2023-07-31T05:51:53;8.32;;;5.30;;
13959;SDS011;7052;51.050;3.716;2023-07-31T05:54:20;8.90;;;5.78;;
13959;SDS011;7052;51.050;3.716;2023-07-31T05:56:47;9.88;;;5.30;;
13959;SDS011;7052;51.050;3.716;2023-07-31T05:59:15;8.32;;;5.70;;
13959;SDS011;7052;51.050;3.716;2023-07-31T06:01:43;6.85;;;5.45;;
13959;SDS011;7052;51.050;3.716;2023-07-31T06:04:13;9.50;;;5.70;;
13959;SDS011;7052;51.050;3.716;2023-07-31T06:06:40;9.07;;;5.60;;
13959;SDS011;7052;51.050;3.716;2023-07-31T06:09:07;9.10;;;5.40;;
13959;SDS011;7052;51.050;3.716;2023-07-31T06:11:34;12.88;;;5.57;;
13959;SDS011;7052;51.050;3.716;2023-07-31T06:14:04;8.75;;;5.32;;
13959;SDS011;7052;51.050;3.716;2023-07-31T06:16:31;8.90;;;5.20;;
13959;SDS011;7052;51.050;3.716;2023-07-31T06:18:58;8.25;;;5.32;;
13959;SDS011;7052;51.050;3.716;2023-07-31T06:21:29;7.63;;;5.15;;
13959;SDS011;7052;51.050;3.716;2023-07-31T06:23:57;10.48;;;5.45;;
13959;SDS011;7052;51.050;3.716;2023-07-31T06:26:24;8.73;;;5.25;;
13959;SDS011;7052;51.050;3.716;2023-07-31T06:28:51;9.65;;;5.07;;
13959;SDS011;7052;51.050;3.716;2023-07-31T06:31:19;9.82;;;5.30;;
13959;SDS011;7052;51.050;3.716;2023-07-31T06:33:48;10.95;;;5.60;;
13959;SDS011;7052;51.050;3.716;2023-07-31T06:36:15;9.05;;;5.30;;
13959;SDS011;7052;51.050;3.716;2023-07-31T06:38:44;10.18;;;4.97;;
13959;SDS011;7052;51.050;3.716;2023-07-31T06:41:18;6.65;;;5.07;;
13959;SDS011;7052;51.050;3.716;2023-07-31T06:43:46;8.13;;;5.13;;
13959;SDS011;7052;51.050;3.716;2023-07-31T06:46:13;9.60;;;5.28;;
13959;SDS011;7052;51.050;3.716;2023-07-31T06:48:42;8.27;;;4.93;;
13959;SDS011;7052;51.050;3.716;2023-07-31T06:51:09;10.50;;;5.18;;
13959;SDS011;7052;51.050;3.716;2023-07-31T06:53:36;10.80;;;5.28;;
13959;SDS011;7052;51.050;3.716;2023-07-31T06:56:05;9.98;;;5.05;;
13959;SDS011;7052;51.050;3.716;2023-07-31T06:58:32;13.80;;;5.53;;
13959;SDS011;7052;51.050;3.716;2023-07-31T07:01:03;9.10;;;4.60;;
13959;SDS011;7052;51.050;3.716;2023-07-31T07:03:30;12.27;;;5.15;;
13959;SDS011;7052;51.050;3.716;2023-07-31T07:05:58;9.90;;;4.97;;
13959;SDS011;7052;51.050;3.716;2023-07-31T07:08:25;6.78;;;4.63;;
13959;SDS011;7052;51.050;3.716;2023-07-31T07:10:53;9.70;;;4.97;;
13959;SDS011;7052;51.050;3.716;2023-07-31T07:13:21;10.23;;;5.20;;
13959;SDS011;7052;51.050;3.716;2023-07-31T07:15:49;7.68;;;4.65;;
13959;SDS011;7052;51.050;3.716;2023-07-31T07:18:18;6.90;;;4.70;;
13959;SDS011;7052;51.050;3.716;2023-07-31T07:20:46;9.50;;;4.93;;
13959;SDS011;7052;51.050;3.716;2023-07-31T07:23:16;8.55;;;4.90;;
13959;SDS011;7052;51.050;3.716;2023-07-31T07:25:45;7.70;;;4.50;;
13959;SDS011;7052;51.050;3.716;2023-07-31T07:28:12;8.15;;;4.93;;
13959;SDS011;7052;51.050;3.716;2023-07-31T07:30:41;6.75;;;4.60;;
13959;SDS011;7052;51.050;3.716;2023-07-31T07:33:09;6.85;;;4.70;;
13959;SDS011;7052;51.050;3.716;2023-07-31T07:35:39;6.35;;;4.43;;
13959;SDS011;7052;51.050;3.716;2023-07-31T07:38:07;5.18;;;3.95;;
13959;SDS011;7052;51.050;3.716;2023-07-31T07:40:38;6.90;;;4.03;;
13959;SDS011;7052;51.050;3.716;2023-07-31T07:43:07;5.60;;;4.18;;
13959;SDS011;7052;51.050;3.716;2023-07-31T07:45:35;4.97;;;3.65;;
13959;SDS011;7052;51.050;3.716;2023-07-31T07:48:04;5.40;;;3.80;;
13959;SDS011;7052;51.050;3.716;2023-07-31T07:50:31;5.72;;;3.72;;
13959;SDS011;7052;51.050;3.716;2023-07-31T07:53:00;7.10;;;3.72;;
13959;SDS011;7052;51.050;3.716;2023-07-31T07:55:29;6.43;;;3.83;;
13959;SDS011;7052;51.050;3.716;2023-07-31T07:57:58;9.10;;;4.07;;
13959;SDS011;7052;51.050;3.716;2023-07-31T08:00:32;5.40;;;3.42;;
13959;SDS011;7052;51.050;3.716;2023-07-31T08:02:58;6.97;;;3.38;;
13959;SDS011;7052;51.050;3.716;2023-07-31T08:05:27;4.57;;;3.00;;
13959;SDS011;7052;51.050;3.716;2023-07-31T08:07:54;6.45;;;3.35;;
13959;SDS011;7052;51.050;3.716;2023-07-31T08:10:21;5.47;;;3.30;;
13959;SDS011;7052;51.050;3.716;2023-07-31T08:12:49;6.32;;;3.30;;
13959;SDS011;7052;51.050;3.716;2023-07-31T08:15:16;3.78;;;2.97;;
13959;SDS011;7052;51.050;3.716;2023-07-31T08:17:46;3.28;;;2.97;;
13959;SDS011;7052;51.050;3.716;2023-07-31T08:20:13;4.60;;;2.83;;
13959;SDS011;7052;51.050;3.716;2023-07-31T08:22:42;3.45;;;2.65;;
13959;SDS011;7052;51.050;3.716;2023-07-31T08:25:09;4.68;;;3.35;;
13959;SDS011;7052;51.050;3.716;2023-07-31T08:27:36;3.72;;;2.95;;
13959;SDS011;7052;51.050;3.716;2023-07-31T08:30:04;4.93;;;3.03;;
13959;SDS011;7052;51.050;3.716;2023-07-31T08:32:33;4.97;;;3.00;;
13959;SDS011;7052;51.050;3.716;2023-07-31T08:35:00;4.22;;;2.90;;
13959;SDS011;7052;51.050;3.716;2023-07-31T08:37:37;3.97;;;2.75;;
13959;SDS011;7052;51.050;3.716;2023-07-31T08:40:09;4.15;;;2.78;;
13959;SDS011;7052;51.050;3.716;2023-07-31T08:42:42;4.95;;;3.00;;
13959;SDS011;7052;51.050;3.716;2023-07-31T08:45:14;3.78;;;3.10;;
13959;SDS011;7052;51.050;3.716;2023-07-31T08:47:42;5.13;;;2.83;;
13959;SDS011;7052;51.050;3.716;2023-07-31T08:50:12;4.47;;;3.00;;
13959;SDS011;7052;51.050;3.716;2023-07-31T08:52:39;5.03;;;3.10;;
13959;SDS011;7052;51.050;3.716;2023-07-31T08:55:07;4.28;;;2.95;;
13959;SDS011;7052;51.050;3.716;2023-07-31T09:00:22;2.60;;;2.20;;
13959;SDS011;7052;51.050;3.716;2023-07-31T09:02:54;4.32;;;2.75;;
13959;SDS011;7052;51.050;3.716;2023-07-31T09:05:24;4.72;;;2.92;;
13959;SDS011;7052;51.050;3.716;2023-07-31T09:07:53;3.60;;;2.88;;
13959;SDS011;7052;51.050;3.716;2023-07-31T09:12:56;3.58;;;3.10;;
13959;SDS011;7052;51.050;3.716;2023-07-31T09:15:26;4.95;;;3.25;;
13959;SDS011;7052;51.050;3.716;2023-07-31T09:17:58;4.57;;;3.30;;
13959;SDS011;7052;51.050;3.716;2023-07-31T09:20:31;5.38;;;3.00;;
13959;SDS011;7052;51.050;3.716;2023-07-31T09:23:04;4.78;;;3.47;;
13959;SDS011;7052;51.050;3.716;2023-07-31T09:25:35;6.13;;;3.67;;
13959;SDS011;7052;51.050;3.716;2023-07-31T09:28:05;4.28;;;3.35;;
13959;SDS011;7052;51.050;3.716;2023-07-31T09:30:43;5.07;;;3.60;;
13959;SDS011;7052;51.050;3.716;2023-07-31T09:33:13;4.50;;;3.65;;
13959;SDS011;7052;51.050;3.716;2023-07-31T09:35:40;4.97;;;3.45;;
13959;SDS011;7052;51.050;3.716;2023-07-31T09:38:09;4.43;;;3.53;;
13959;SDS011;7052;51.050;3.716;2023-07-31T09:40:44;8.35;;;4.40;;
13959;SDS011;7052;51.050;3.716;2023-07-31T09:43:14;6.15;;;3.83;;
13959;SDS011;7052;51.050;3.716;2023-07-31T09:45:44;5.50;;;4.43;;
13959;SDS011;7052;51.050;3.716;2023-07-31T09:48:14;6.63;;;3.70;;
13959;SDS011;7052;51.050;3.716;2023-07-31T09:50:43;7.95;;;4.25;;
13959;SDS011;7052;51.050;3.716;2023-07-31T09:53:11;4.28;;;3.58;;
13959;SDS011;7052;51.050;3.716;2023-07-31T09:55:40;8.73;;;4.70;;
13959;SDS011;7052;51.050;3.716;2023-07-31T09:58:18;10.60;;;4.57;;
13959;SDS011;7052;51.050;3.716;2023-07-31T10:00:45;5.97;;;4.00;;
13959;SDS011;7052;51.050;3.716;2023-07-31T10:03:12;7.43;;;4.90;;
13959;SDS011;7052;51.050;3.716;2023-07-31T10:05:50;6.63;;;4.35;;
13959;SDS011;7052;51.050;3.716;2023-07-31T10:08:20;8.48;;;4.50;;
13959;SDS011;7052;51.050;3.716;2023-07-31T10:10:58;5.97;;;4.50;;
13959;SDS011;7052;51.050;3.716;2023-07-31T10:13:27;7.05;;;4.65;;
13959;SDS011;7052;51.050;3.716;2023-07-31T10:15:56;5.45;;;4.55;;
13959;SDS011;7052;51.050;3.716;2023-07-31T10:18:25;6.80;;;3.90;;
13959;SDS011;7052;51.050;3.716;2023-07-31T10:20:54;8.13;;;4.65;;
13959;SDS011;7052;51.050;3.716;2023-07-31T10:23:22;6.15;;;4.60;;
13959;SDS011;7052;51.050;3.716;2023-07-31T10:25:50;5.82;;;4.30;;
13959;SDS011;7052;51.050;3.716;2023-07-31T10:28:21;6.07;;;4.28;;
13959;SDS011;7052;51.050;3.716;2023-07-31T10:30:51;7.35;;;4.40;;
13959;SDS011;7052;51.050;3.716;2023-07-31T10:33:18;7.22;;;5.10;;
13959;SDS011;7052;51.050;3.716;2023-07-31T10:35:46;6.45;;;4.88;;
13959;SDS011;7052;51.050;3.716;2023-07-31T10:38:14;7.00;;;4.90;;
13959;SDS011;7052;51.050;3.716;2023-07-31T10:40:41;8.40;;;4.85;;
13959;SDS011;7052;51.050;3.716;2023-07-31T10:43:09;7.20;;;5.03;;
13959;SDS011;7052;51.050;3.716;2023-07-31T10:45:52;5.97;;;4.75;;
13959;SDS011;7052;51.050;3.716;2023-07-31T10:48:20;7.55;;;4.40;;
13959;SDS011;7052;51.050;3.716;2023-07-31T10:50:55;6.70;;;5.15;;
13959;SDS011;7052;51.050;3.716;2023-07-31T10:53:23;6.90;;;4.57;;
13959;SDS011;7052;51.050;3.716;2023-07-31T10:55:51;8.60;;;4.88;;
13959;SDS011;7052;51.050;3.716;2023-07-31T10:58:20;7.95;;;4.80;;
13959;SDS011;7052;51.050;3.716;2023-07-31T11:00:49;6.88;;;4.65;;
13959;SDS011;7052;51.050;3.716;2023-07-31T11:03:24;5.93;;;4.22;;
13959;SDS011;7052;51.050;3.716;2023-07-31T11:05:54;5.32;;;4.03;;
13959;SDS011;7052;51.050;3.716;2023-07-31T11:08:28;8.40;;;4.63;;
13959;SDS011;7052;51.050;3.716;2023-07-31T11:11:07;6.65;;;3.72;;
13959;SDS011;7052;51.050;3.716;2023-07-31T11:13:42;6.90;;;4.18;;
13959;SDS011;7052;51.050;3.716;2023-07-31T11:16:14;5.93;;;4.25;;
13959;SDS011;7052;51.050;3.716;2023-07-31T11:18:45;8.30;;;4.15;;
13959;SDS011;7052;51.050;3.716;2023-07-31T11:21:13;5.32;;;4.35;;
13959;SDS011;7052;51.050;3.716;2023-07-31T11:23:47;7.90;;;4.10;;
13959;SDS011;7052;51.050;3.716;2023-07-31T11:26:14;5.40;;;3.88;;
13959;SDS011;7052;51.050;3.716;2023-07-31T11:28:45;7.78;;;3.88;;
13959;SDS011;7052;51.050;3.716;2023-07-31T11:31:15;7.15;;;3.75;;
13959;SDS011;7052;51.050;3.716;2023-07-31T11:33:42;6.35;;;3.53;;
13959;SDS011;7052;51.050;3.716;2023-07-31T11:36:14;6.88;;;4.45;;
13959;SDS011;7052;51.050;3.716;2023-07-31T11:38:43;7.30;;;4.05;;
13959;SDS011;7052;51.050;3.716;2023-07-31T11:41:10;5.93;;;4.20;;
13959;SDS011;7052;51.050;3.716;2023-07-31T11:43:46;5.97;;;4.65;;
13959;SDS011;7052;51.050;3.716;2023-07-31T11:46:14;6.95;;;4.32;;
13959;SDS011;7052;51.050;3.716;2023-07-31T11:48:42;6.85;;;3.85;;
13959;SDS011;7052;51.050;3.716;2023-07-31T11:51:10;6.15;;;4.50;;
13959;SDS011;7052;51.050;3.716;2023-07-31T11:53:41;8.82;;;4.38;;
13959;SDS011;7052;51.050;3.716;2023-07-31T11:56:13;6.13;;;4.13;;
13959;SDS011;7052;51.050;3.716;2023-07-31T11:58:46;5.78;;;4.72;;
13959;SDS011;7052;51.050;3.716;2023-07-31T12:01:20;11.93;;;5.10;;
13959;SDS011;7052;51.050;3.716;2023-07-31T12:03:50;6.50;;;4.60;;
13959;SDS011;7052;51.050;3.716;2023-07-31T12:06:18;6.50;;;4.85;;
13959;SDS011;7052;51.050;3.716;2023-07-31T12:08:46;9.23;;;5.07;;
13959;SDS011;7052;51.050;3.716;2023-07-31T12:11:13;11.15;;;5.10;;
13959;SDS011;7052;51.050;3.716;2023-07-31T12:13:40;7.15;;;4.47;;
13959;SDS011;7052;51.050;3.716;2023-07-31T12:16:07;7.85;;;5.05;;
13959;SDS011;7052;51.050;3.716;2023-07-31T12:18:36;22.52;;;8.40;;
13959;SDS011;7052;51.050;3.716;2023-07-31T12:21:05;6.32;;;4.60;;
13959;SDS011;7052;51.050;3.716;2023-07-31T12:23:38;12.35;;;7.03;;
13959;SDS011;7052;51.050;3.716;2023-07-31T12:26:09;7.80;;;5.35;;
13959;SDS011;7052;51.050;3.716;2023-07-31T12:28:40;9.00;;;5.53;;
13959;SDS011;7052;51.050;3.716;2023-07-31T12:31:09;7.80;;;5.30;;
13959;SDS011;7052;51.050;3.716;2023-07-31T12:33:41;12.30;;;6.05;;
13959;SDS011;7052;51.050;3.716;2023-07-31T12:36:08;7.88;;;5.85;;
13959;SDS011;7052;51.050;3.716;2023-07-31T12:38:37;7.65;;;5.80;;
13959;SDS011;7052;51.050;3.716;2023-07-31T12:41:05;9.55;;;6.10;;
13959;SDS011;7052;51.050;3.716;2023-07-31T12:43:32;9.52;;;6.88;;
13959;SDS011;7052;51.050;3.716;2023-07-31T12:45:59;7.22;;;6.10;;
13959;SDS011;7052;51.050;3.716;2023-07-31T12:48:27;9.43;;;6.45;;
13959;SDS011;7052;51.050;3.716;2023-07-31T12:50:55;7.50;;;5.93;;
13959;SDS011;7052;51.050;3.716;2023-07-31T12:53:22;6.97;;;5.03;;
13959;SDS011;7052;51.050;3.716;2023-07-31T12:55:49;7.82;;;5.93;;
13959;SDS011;7052;51.050;3.716;2023-07-31T12:58:16;9.88;;;5.63;;
13959;SDS011;7052;51.050;3.716;2023-07-31T13:00:46;7.53;;;4.88;;
13959;SDS011;7052;51.050;3.716;2023-07-31T13:03:15;7.13;;;4.55;;
13959;SDS011;7052;51.050;3.716;2023-07-31T13:05:42;6.28;;;4.65;;
13959;SDS011;7052;51.050;3.716;2023-07-31T13:08:14;8.23;;;4.60;;
13959;SDS011;7052;51.050;3.716;2023-07-31T13:10:42;5.22;;;4.40;;
13959;SDS011;7052;51.050;3.716;2023-07-31T13:13:11;6.50;;;4.25;;
13959;SDS011;7052;51.050;3.716;2023-07-31T13:15:38;5.82;;;3.80;;
13959;SDS011;7052;51.050;3.716;2023-07-31T13:18:13;5.03;;;3.70;;
13959;SDS011;7052;51.050;3.716;2023-07-31T13:20:40;4.75;;;3.40;;
13959;SDS011;7052;51.050;3.716;2023-07-31T13:23:07;4.15;;;3.35;;
13959;SDS011;7052;51.050;3.716;2023-07-31T13:25:37;4.28;;;3.08;;
13959;SDS011;7052;51.050;3.716;2023-07-31T13:28:04;4.13;;;3.10;;
13959;SDS011;7052;51.050;3.716;2023-07-31T13:30:31;5.22;;;3.35;;
13959;SDS011;7052;51.050;3.716;2023-07-31T13:32:58;3.13;;;2.60;;
13959;SDS011;7052;51.050;3.716;2023-07-31T13:35:25;4.50;;;2.90;;
13959;SDS011;7052;51.050;3.716;2023-07-31T13:37:52;4.47;;;2.20;;
13959;SDS011;7052;51.050;3.716;2023-07-31T13:40:19;4.90;;;2.90;;
13959;SDS011;7052;51.050;3.716;2023-07-31T13:42:47;4.93;;;3.00;;
13959;SDS011;7052;51.050;3.716;2023-07-31T13:45:16;3.67;;;2.88;;
13959;SDS011;7052;51.050;3.716;2023-07-31T13:47:43;3.90;;;2.88;;
13959;SDS011;7052;51.050;3.716;2023-07-31T13:50:10;4.20;;;2.67;;
13959;SDS011;7052;51.050;3.716;2023-07-31T13:52:38;5.03;;;2.85;;
13959;SDS011;7052;51.050;3.716;2023-07-31T13:55:05;3.38;;;3.03;;
13959;SDS011;7052;51.050;3.716;2023-07-31T13:57:36;3.97;;;3.03;;
13959;SDS011;7052;51.050;3.716;2023-07-31T14:00:09;4.50;;;3.20;;
13959;SDS011;7052;51.050;3.716;2023-07-31T14:02:37;4.75;;;3.10;;
13959;SDS011;7052;51.050;3.716;2023-07-31T14:05:04;5.30;;;3.50;;
13959;SDS011;7052;51.050;3.716;2023-07-31T14:07:33;3.88;;;3.40;;
13959;SDS011;7052;51.050;3.716;2023-07-31T14:10:00;7.10;;;3.70;;
13959;SDS011;7052;51.050;3.716;2023-07-31T14:12:29;6.07;;;4.03;;
13959;SDS011;7052;51.050;3.716;2023-07-31T14:14:56;6.07;;;3.80;;
13959;SDS011;7052;51.050;3.716;2023-07-31T14:17:25;5.53;;;3.95;;
13959;SDS011;7052;51.050;3.716;2023-07-31T14:19:52;5.10;;;4.07;;
13959;SDS011;7052;51.050;3.716;2023-07-31T14:22:27;5.78;;;3.60;;
13959;SDS011;7052;51.050;3.716;2023-07-31T14:24:55;5.55;;;4.03;;
13959;SDS011;7052;51.050;3.716;2023-07-31T14:27:24;4.93;;;3.67;;
13959;SDS011;7052;51.050;3.716;2023-07-31T14:29:51;4.38;;;3.35;;
13959;SDS011;7052;51.050;3.716;2023-07-31T14:32:18;6.15;;;3.95;;
13959;SDS011;7052;51.050;3.716;2023-07-31T14:34:46;6.60;;;3.85;;
13959;SDS011;7052;51.050;3.716;2023-07-31T14:37:14;5.13;;;3.20;;
13959;SDS011;7052;51.050;3.716;2023-07-31T14:39:41;7.22;;;3.85;;
13959;SDS011;7052;51.050;3.716;2023-07-31T14:42:09;4.50;;;3.42;;
13959;SDS011;7052;51.050;3.716;2023-07-31T14:44:36;5.25;;;3.42;;
13959;SDS011;7052;51.050;3.716;2023-07-31T14:47:03;7.13;;;4.03;;
13959;SDS011;7052;51.050;3.716;2023-07-31T14:49:31;5.13;;;3.17;;
13959;SDS011;7052;51.050;3.716;2023-07-31T14:52:02;5.63;;;3.58;;
13959;SDS011;7052;51.050;3.716;2023-07-31T14:54:29;3.97;;;3.20;;
13959;SDS011;7052;51.050;3.716;2023-07-31T14:56:57;4.38;;;3.05;;
13959;SDS011;7052;51.050;3.716;2023-07-31T14:59:25;6.03;;;2.67;;
13959;SDS011;7052;51.050;3.716;2023-07-31T15:01:52;3.80;;;2.88;;
13959;SDS011;7052;51.050;3.716;2023-07-31T15:04:21;3.17;;;2.80;;
13959;SDS011;7052;51.050;3.716;2023-07-31T15:06:51;3.95;;;2.70;;
13959;SDS011;7052;51.050;3.716;2023-07-31T15:09:21;3.03;;;2.30;;